createdAt,value
2022-11-24T00:02:40.907Z,6.90
2022-11-24T00:06:23.570Z,6.90
2022-11-24T00:10:05.619Z,6.90
2022-11-24T00:13:47.642Z,7.00
2022-11-24T00:17:29.455Z,6.90
2022-11-24T00:21:11.992Z,6.90
2022-11-24T00:24:53.693Z,6.90
2022-11-24T00:28:36.613Z,7.00
2022-11-24T00:32:18.323Z,6.90
2022-11-24T00:36:00.691Z,6.80
2022-11-24T00:39:42.458Z,6.80
2022-11-24T00:43:24.377Z,6.70
2022-11-24T00:47:06.579Z,6.70
2022-11-24T00:50:59.896Z,6.60
2022-11-24T00:54:41.600Z,6.60
2022-11-24T00:58:24.477Z,6.60
2022-11-24T01:02:06.229Z,6.50
2022-11-24T01:05:48.519Z,6.40
2022-11-24T01:09:30.221Z,6.40
2022-11-24T01:13:13.280Z,6.40
2022-11-24T01:16:55.608Z,6.30
2022-11-24T01:20:37.712Z,6.30
2022-11-24T01:24:19.593Z,6.30
2022-11-24T01:28:01.279Z,6.30
2022-11-24T01:31:43.013Z,6.20
2022-11-24T01:35:24.787Z,6.30
2022-11-24T01:39:06.499Z,6.30
2022-11-24T01:42:52.547Z,6.40
2022-11-24T01:46:45.192Z,6.40
2022-11-24T01:50:27.137Z,6.40
2022-11-24T01:54:12.895Z,6.40
2022-11-24T01:58:01.965Z,6.50
2022-11-24T02:01:43.984Z,6.50
2022-11-24T02:05:50.091Z,6.50
2022-11-24T02:09:43.460Z,6.50
2022-11-24T02:13:25.332Z,6.50
2022-11-24T02:17:07.240Z,6.50
2022-11-24T02:20:49.025Z,6.50
2022-11-24T02:24:47.216Z,6.60
2022-11-24T02:28:32.955Z,6.60
2022-11-24T02:32:16.170Z,6.60
2022-11-24T02:35:57.929Z,6.60
2022-11-24T02:39:39.671Z,6.60
2022-11-24T02:43:23.504Z,6.60
2022-11-24T02:47:10.473Z,6.60
2022-11-24T02:50:52.155Z,6.60
2022-11-24T02:54:34.476Z,6.60
2022-11-24T02:58:16.375Z,6.60
2022-11-24T03:01:58.231Z,6.50
2022-11-24T03:05:40.031Z,6.60
2022-11-24T03:09:21.819Z,6.60
2022-11-24T03:13:03.573Z,6.50
2022-11-24T03:16:45.284Z,6.60
2022-11-24T03:20:27.007Z,6.50
2022-11-24T03:24:09.072Z,6.50
2022-11-24T03:27:51.143Z,6.50
2022-11-24T03:31:32.980Z,6.50
2022-11-24T03:35:14.778Z,6.40
2022-11-24T03:38:56.484Z,6.40
2022-11-24T03:42:38.173Z,6.40
2022-11-24T03:46:19.935Z,6.40
2022-11-24T03:50:01.792Z,6.40
2022-11-24T03:53:43.593Z,6.40
2022-11-24T03:57:25.473Z,6.40
2022-11-24T04:01:07.275Z,6.40
2022-11-24T04:04:50.820Z,6.40
2022-11-24T04:08:32.564Z,6.40
2022-11-24T04:12:32.668Z,6.40
2022-11-24T04:16:14.519Z,6.40
2022-11-24T04:19:56.264Z,6.30
2022-11-24T04:23:37.978Z,6.40
2022-11-24T04:27:19.685Z,6.40
2022-11-24T04:31:05.929Z,6.40
2022-11-24T04:34:47.691Z,6.40
2022-11-24T04:39:24.932Z,6.40
2022-11-24T04:42:31.139Z,6.50
2022-11-24T04:46:12.901Z,6.40
2022-11-24T04:49:54.982Z,6.50
2022-11-24T04:53:36.768Z,6.40
2022-11-24T04:57:24.068Z,6.40
2022-11-24T05:01:09.051Z,6.50
2022-11-24T05:04:51.278Z,6.50
2022-11-24T05:08:33.040Z,6.50
2022-11-24T05:12:14.729Z,6.40
2022-11-24T05:15:56.617Z,6.40
2022-11-24T05:19:38.724Z,6.40
2022-11-24T05:23:20.428Z,6.50
2022-11-24T05:27:02.167Z,6.50
2022-11-24T05:30:43.966Z,6.50
2022-11-24T05:34:26.165Z,6.50
2022-11-24T05:38:08.191Z,6.50
2022-11-24T05:41:49.872Z,6.50
2022-11-24T05:45:31.560Z,6.50
2022-11-24T05:49:13.284Z,6.60
2022-11-24T05:52:54.986Z,6.60
2022-11-24T05:56:36.691Z,6.60
2022-11-24T06:00:19.953Z,6.60
2022-11-24T06:04:01.710Z,6.60
2022-11-24T06:07:43.651Z,6.60
2022-11-24T06:11:25.362Z,6.70
2022-11-24T06:15:07.540Z,6.60
2022-11-24T06:18:49.331Z,6.70
2022-11-24T06:22:31.069Z,6.70
2022-11-24T06:26:12.802Z,6.80
2022-11-24T06:29:54.502Z,6.70
2022-11-24T06:33:37.806Z,6.70
2022-11-24T06:37:19.824Z,6.70
2022-11-24T06:41:07.050Z,6.70
2022-11-24T06:44:49.049Z,6.70
2022-11-24T06:48:31.530Z,6.70
2022-11-24T06:52:13.195Z,6.60
2022-11-24T06:56:00.568Z,6.50
2022-11-24T06:59:42.263Z,6.60
2022-11-24T07:03:23.971Z,6.60
2022-11-24T07:07:05.685Z,6.70
2022-11-24T07:10:47.347Z,6.80
2022-11-24T07:14:29.108Z,6.90
2022-11-24T07:18:10.893Z,6.80
2022-11-24T07:21:52.625Z,6.90
2022-11-24T07:25:34.334Z,6.90
2022-11-24T07:29:16.140Z,6.90
2022-11-24T07:33:01.971Z,6.80
2022-11-24T07:36:45.104Z,6.90
2022-11-24T07:40:27.223Z,6.90
2022-11-24T07:44:08.941Z,7.00
2022-11-24T07:47:50.729Z,7.30
2022-11-24T07:51:32.413Z,7.50
2022-11-24T07:55:14.288Z,7.70
2022-11-24T07:58:55.976Z,7.80
2022-11-24T08:02:37.748Z,8.00
2022-11-24T08:06:32.294Z,8.10
2022-11-24T08:10:18.056Z,8.10
2022-11-24T08:13:59.816Z,8.20
2022-11-24T08:17:41.525Z,8.30
2022-11-24T08:21:24.104Z,8.40
2022-11-24T08:25:06.334Z,8.50
2022-11-24T08:28:48.431Z,8.60
2022-11-24T08:32:30.169Z,8.70
2022-11-24T08:36:14.529Z,8.80
2022-11-24T08:39:56.220Z,8.90
2022-11-24T08:43:38.756Z,9.00
2022-11-24T08:47:21.521Z,9.00
2022-11-24T08:51:11.402Z,9.10
2022-11-24T08:54:53.473Z,9.10
2022-11-24T08:58:35.981Z,9.30
2022-11-24T09:02:17.800Z,9.40
2022-11-24T09:05:59.497Z,9.50
2022-11-24T09:09:41.239Z,9.60
2022-11-24T09:13:22.924Z,9.70
2022-11-24T09:17:04.719Z,9.90
2022-11-24T09:20:46.519Z,10.00
2022-11-24T09:24:28.248Z,10.10
2022-11-24T09:28:09.935Z,10.20
2022-11-24T09:31:51.634Z,10.40
2022-11-24T09:35:36.639Z,10.60
2022-11-24T09:39:18.519Z,10.60
2022-11-24T09:43:11.283Z,10.70
2022-11-24T09:47:18.784Z,10.70
2022-11-24T09:51:04.126Z,10.80
2022-11-24T09:54:53.481Z,10.70
2022-11-24T09:58:54.738Z,10.80
2022-11-24T10:02:36.463Z,11.10
2022-11-24T10:06:34.639Z,11.30
2022-11-24T10:10:25.180Z,11.60
2022-11-24T10:14:25.065Z,11.60
2022-11-24T10:18:18.836Z,11.70
2022-11-24T10:22:03.495Z,11.80
2022-11-24T10:25:56.579Z,11.90
2022-11-24T10:29:40.772Z,11.90
2022-11-24T10:33:30.366Z,12.00
2022-11-24T10:37:36.005Z,12.00
2022-11-24T10:41:37.237Z,11.90
2022-11-24T10:45:22.339Z,11.90
2022-11-24T10:49:05.328Z,11.80
2022-11-24T10:53:08.931Z,11.70
2022-11-24T10:56:52.702Z,11.70
2022-11-24T11:00:35.876Z,11.70
2022-11-24T11:04:30.952Z,11.70
2022-11-24T11:08:32.231Z,11.70
2022-11-24T11:12:45.419Z,11.60
2022-11-24T11:16:53.871Z,11.60
2022-11-24T11:20:36.648Z,11.60
2022-11-24T11:24:18.642Z,11.50
2022-11-24T11:28:34.688Z,11.60
2022-11-24T11:36:31.373Z,11.70
2022-11-24T11:40:25.060Z,11.90
2022-11-24T11:44:34.219Z,12.10
2022-11-24T11:48:43.129Z,12.00
2022-11-24T11:52:40.450Z,12.00
2022-11-24T11:56:26.162Z,12.10
2022-11-24T12:00:14.332Z,12.00
2022-11-24T12:04:04.265Z,12.10
2022-11-24T12:08:20.679Z,12.10
2022-11-24T12:12:21.879Z,12.10
2022-11-24T12:16:31.010Z,12.20
2022-11-24T12:20:27.921Z,12.10
2022-11-24T12:24:45.047Z,12.10
2022-11-24T12:28:59.032Z,12.20
2022-11-24T12:32:49.307Z,12.30
2022-11-24T12:36:49.180Z,12.40
2022-11-24T12:41:18.322Z,12.40
2022-11-24T12:45:12.999Z,12.50
2022-11-24T12:49:36.356Z,12.50
2022-11-24T12:53:24.383Z,12.40
2022-11-24T12:57:10.050Z,12.20
2022-11-24T13:01:33.882Z,11.90
2022-11-24T13:05:32.214Z,11.70
2022-11-24T13:09:14.240Z,11.50
2022-11-24T13:13:03.744Z,11.40
2022-11-24T13:17:13.545Z,11.20
2022-11-24T13:20:51.487Z,11.10
2022-11-24T13:24:37.015Z,11.00
2022-11-24T13:29:12.995Z,10.90
2022-11-24T13:33:32.700Z,10.90
2022-11-24T13:37:31.306Z,11.10
2022-11-24T13:41:35.240Z,11.30
2022-11-24T13:45:35.795Z,11.20
2022-11-24T13:49:20.830Z,11.00
2022-11-24T13:53:18.941Z,10.90
2022-11-24T13:57:35.810Z,10.80
2022-11-24T14:01:30.719Z,10.80
2022-11-24T14:05:17.228Z,10.70
2022-11-24T14:09:21.120Z,10.60
2022-11-24T14:13:31.792Z,10.50
2022-11-24T14:17:23.024Z,10.50
2022-11-24T14:21:20.352Z,10.50
2022-11-24T14:25:03.533Z,10.50
2022-11-24T14:28:45.951Z,10.50
2022-11-24T14:32:28.140Z,10.60
2022-11-24T14:36:15.282Z,11.00
2022-11-24T14:39:57.020Z,11.60
2022-11-24T14:43:40.797Z,12.00
2022-11-24T14:47:32.531Z,12.20
2022-11-24T14:51:20.904Z,12.50
2022-11-24T14:55:17.605Z,12.50
2022-11-24T14:59:18.240Z,12.10
2022-11-24T15:03:05.802Z,11.60
2022-11-24T15:06:49.645Z,11.20
2022-11-24T15:10:36.983Z,10.80
2022-11-24T15:14:46.916Z,10.60
2022-11-24T15:18:43.011Z,10.30
2022-11-24T15:22:37.091Z,10.20
2022-11-24T15:26:18.741Z,10.00
2022-11-24T15:30:00.423Z,9.80
2022-11-24T15:33:42.383Z,9.70
2022-11-24T15:37:24.187Z,9.60
2022-11-24T15:41:19.094Z,9.50
2022-11-24T15:45:00.818Z,9.40
2022-11-24T15:48:42.487Z,9.40
2022-11-24T15:52:24.396Z,9.30
2022-11-24T15:56:15.345Z,9.20
2022-11-24T15:59:57.080Z,9.20
2022-11-24T16:03:46.853Z,9.10
2022-11-24T16:07:29.019Z,9.00
2022-11-24T16:11:10.875Z,9.00
2022-11-24T16:14:52.544Z,9.00
2022-11-24T16:18:35.425Z,9.00
2022-11-24T16:22:17.117Z,8.90
2022-11-24T16:25:58.821Z,8.90
2022-11-24T16:29:40.580Z,8.80
2022-11-24T16:33:22.248Z,8.80
2022-11-24T16:37:04.117Z,8.70
2022-11-24T16:40:51.423Z,8.60
2022-11-24T16:44:34.606Z,8.50
2022-11-24T16:48:16.547Z,8.50
2022-11-24T16:51:58.239Z,8.40
2022-11-24T16:55:39.919Z,8.40
2022-11-24T16:59:21.652Z,8.40
2022-11-24T17:03:03.337Z,8.50
2022-11-24T17:06:45.033Z,8.50
2022-11-24T17:10:26.728Z,8.50
2022-11-24T17:14:10.411Z,8.50
2022-11-24T17:18:22.515Z,8.60
2022-11-24T17:21:54.558Z,8.50
2022-11-24T17:25:36.219Z,8.50
2022-11-24T17:29:18.753Z,8.50
2022-11-24T17:33:00.467Z,8.40
2022-11-24T17:36:44.935Z,8.40
2022-11-24T17:40:29.038Z,8.40
2022-11-24T17:44:12.629Z,8.40
2022-11-24T17:47:54.662Z,8.30
2022-11-24T17:51:36.521Z,8.30
2022-11-24T17:55:18.196Z,8.30
2022-11-24T17:59:01.140Z,8.30
2022-11-24T18:02:42.890Z,8.30
2022-11-24T18:06:25.458Z,8.30
2022-11-24T18:10:08.542Z,8.20
2022-11-24T18:14:00.665Z,8.20
2022-11-24T18:17:43.243Z,8.10
2022-11-24T18:21:25.760Z,8.10
2022-11-24T18:25:07.794Z,8.10
2022-11-24T18:28:50.550Z,8.10
2022-11-24T18:32:32.647Z,8.00
2022-11-24T18:36:17.453Z,7.90
2022-11-24T18:39:59.871Z,7.90
2022-11-24T18:43:42.113Z,7.90
2022-11-24T18:47:23.822Z,7.80
2022-11-24T18:51:05.746Z,7.80
2022-11-24T18:54:47.429Z,7.80
2022-11-24T18:58:31.047Z,7.80
2022-11-24T19:02:12.940Z,7.80
2022-11-24T19:05:54.666Z,7.90
2022-11-24T19:09:36.560Z,7.80
2022-11-24T19:13:18.273Z,7.80
2022-11-24T19:17:03.901Z,7.80
2022-11-24T19:20:45.704Z,7.80
2022-11-24T19:24:27.753Z,7.80
2022-11-24T19:28:12.506Z,7.80
2022-11-24T19:31:54.723Z,7.80
2022-11-24T19:35:36.512Z,7.80
2022-11-24T19:39:18.331Z,7.90
2022-11-24T19:43:00.050Z,7.90
2022-11-24T19:46:41.784Z,7.90
2022-11-24T19:50:23.543Z,7.90
2022-11-24T19:54:12.761Z,7.90
2022-11-24T19:57:54.456Z,7.90
2022-11-24T20:01:39.190Z,7.80
2022-11-24T20:05:20.927Z,7.80
2022-11-24T20:09:04.331Z,7.80
2022-11-24T20:12:46.062Z,7.80
2022-11-24T20:16:30.728Z,7.80
2022-11-24T20:20:12.939Z,7.80
2022-11-24T20:24:01.087Z,7.80
2022-11-24T20:27:42.795Z,7.80
2022-11-24T20:31:28.021Z,7.80
2022-11-24T20:35:14.990Z,7.90
2022-11-24T20:39:01.822Z,7.90
2022-11-24T20:42:43.579Z,7.90
2022-11-24T20:46:28.429Z,7.90
2022-11-24T20:50:10.415Z,7.90
2022-11-24T20:53:54.161Z,7.90
2022-11-24T20:57:35.879Z,7.90
2022-11-24T21:01:23.022Z,8.00
2022-11-24T21:05:04.972Z,8.00
2022-11-24T21:08:46.694Z,8.00
2022-11-24T21:12:28.389Z,8.10
2022-11-24T21:16:14.542Z,8.10
2022-11-24T21:20:00.867Z,8.10
2022-11-24T21:23:45.028Z,8.20
2022-11-24T21:27:27.164Z,8.10
2022-11-24T21:31:17.428Z,8.20
2022-11-24T21:34:59.175Z,8.10
2022-11-24T21:38:42.616Z,8.20
2022-11-24T21:42:24.324Z,8.20
2022-11-24T21:46:08.303Z,8.20
2022-11-24T21:49:50.004Z,8.20
2022-11-24T21:53:34.294Z,8.30
2022-11-24T21:57:16.011Z,8.30
2022-11-24T22:01:08.955Z,8.30
2022-11-24T22:04:50.688Z,8.30
2022-11-24T22:08:32.690Z,8.30
2022-11-24T22:12:14.411Z,8.30
2022-11-24T22:16:08.031Z,8.30
2022-11-24T22:19:49.827Z,8.30
2022-11-24T22:23:32.523Z,8.30
2022-11-24T22:27:14.245Z,8.30
2022-11-24T22:30:55.943Z,8.40
2022-11-24T22:34:37.831Z,8.40
2022-11-24T22:38:19.609Z,8.50
2022-11-24T22:42:01.297Z,8.50
2022-11-24T22:45:43.002Z,8.60
2022-11-24T22:49:24.775Z,8.70
2022-11-24T22:53:06.453Z,8.80
2022-11-24T22:56:48.343Z,8.80
2022-11-24T23:00:30.076Z,8.90
2022-11-24T23:04:11.981Z,8.80
2022-11-24T23:07:53.762Z,8.80
2022-11-24T23:11:38.657Z,8.70
2022-11-24T23:15:20.604Z,8.50
2022-11-24T23:19:02.436Z,8.40
2022-11-24T23:22:44.186Z,8.30
2022-11-24T23:26:28.730Z,8.20
2022-11-24T23:30:10.671Z,8.10
2022-11-24T23:33:52.412Z,8.10
2022-11-24T23:38:00.001Z,8.10
2022-11-24T23:41:35.918Z,8.00
2022-11-24T23:45:17.689Z,8.00
2022-11-24T23:48:59.609Z,7.90
2022-11-24T23:52:41.376Z,8.00
2022-11-24T23:56:26.551Z,7.90
